Time;durP1;ratioP1;P1;durP2;ratioP2;P2;SDS_P1;SDS_P2;PMS_P1;PMS_P2;Temp;Humidity;BMP_temperature;BMP_pressure;BME280_temperature;BME280_humidity;BME280_pressure;Samples;Min_cycle;Max_cycle;Signal;HPM_P1;HPM_P2
2022/10/13 00:01:54;;;;;;;0.20;0.10;;;;;;;;;;5009292;28;20046;-83
2022/10/13 00:04:21;;;;;;;0.20;0.10;;;;;;;;;;5002736;28;20038;-83
2022/10/13 00:06:47;;;;;;;0.20;0.10;;;;;;;;;;4993836;28;20530;-82
2022/10/13 00:09:13;;;;;;;0.40;0.40;;;;;;;;;;4981440;28;20488;-82
2022/10/13 00:11:39;;;;;;;0.20;0.10;;;;;;;;;;4990129;28;20045;-82
2022/10/13 00:14:05;;;;;;;0.20;0.10;;;;;;;;;;5012860;28;20045;-82
2022/10/13 00:16:31;;;;;;;0.20;0.10;;;;;;;;;;4974638;28;20121;-83
2022/10/13 00:18:57;;;;;;;0.20;0.10;;;;;;;;;;4992663;28;20467;-83
2022/10/13 00:21:24;;;;;;;0.20;0.10;;;;;;;;;;4995046;28;20121;-83
2022/10/13 00:23:52;;;;;;;0.20;0.10;;;;;;;;;;4998257;28;20073;-81
2022/10/13 00:26:19;;;;;;;0.20;0.10;;;;;;;;;;4997948;28;20041;-83
2022/10/13 00:28:45;;;;;;;0.40;0.30;;;;;;;;;;4997353;28;20064;-82
2022/10/13 00:31:19;;;;;;;0.30;0.20;;;;;;;;;;5009707;28;20045;-81
2022/10/13 00:33:45;;;;;;;0.20;0.10;;;;;;;;;;5000957;28;20175;-83
2022/10/13 00:36:11;;;;;;;0.20;0.17;;;;;;;;;;5009286;28;20037;-83
2022/10/13 00:38:37;;;;;;;0.20;0.10;;;;;;;;;;4995349;28;20203;-83
2022/10/13 00:41:03;;;;;;;0.28;0.28;;;;;;;;;;4997589;28;20125;-83
2022/10/13 00:43:50;;;;;;;0.20;0.20;;;;;;;;;;5009492;28;20359;-83
2022/10/13 00:46:16;;;;;;;0.20;0.10;;;;;;;;;;4995340;28;20037;-82
2022/10/13 00:48:42;;;;;;;0.20;0.20;;;;;;;;;;4995091;28;20582;-82
2022/10/13 00:51:09;;;;;;;1.35;0.43;;;;;;;;;;4990398;28;20049;-82
2022/10/13 00:53:36;;;;;;;0.20;0.10;;;;;;;;;;5010708;28;20103;-83
2022/10/13 00:56:02;;;;;;;0.20;0.10;;;;;;;;;;4994353;28;20045;-83
2022/10/13 00:58:30;;;;;;;0.20;0.10;;;;;;;;;;4996915;28;21911;-82
2022/10/13 01:00:57;;;;;;;0.20;0.10;;;;;;;;;;4995751;28;20050;-83
2022/10/13 01:03:23;;;;;;;0.20;0.10;;;;;;;;;;5013355;28;20034;-82
2022/10/13 01:05:50;;;;;;;0.20;0.10;;;;;;;;;;5002469;28;20044;-81
2022/10/13 01:08:18;;;;;;;0.20;0.10;;;;;;;;;;5017747;28;20131;-83
2022/10/13 01:10:43;;;;;;;0.20;0.10;;;;;;;;;;4987670;28;20480;-83
2022/10/13 01:13:18;;;;;;;0.20;0.10;;;;;;;;;;5004675;28;20038;-83
2022/10/13 01:15:50;;;;;;;0.20;0.10;;;;;;;;;;5000789;28;20107;-82
2022/10/13 01:18:21;;;;;;;0.20;0.10;;;;;;;;;;5001379;28;20046;-81
2022/10/13 01:20:47;;;;;;;0.30;0.30;;;;;;;;;;5004828;28;20048;-83
2022/10/13 01:23:23;;;;;;;0.20;0.10;;;;;;;;;;5015967;28;20084;-82
2022/10/13 01:25:55;;;;;;;0.45;0.40;;;;;;;;;;5003183;28;20052;-83
2022/10/13 01:28:30;;;;;;;0.73;0.40;;;;;;;;;;5002641;28;20080;-83
2022/10/13 01:31:07;;;;;;;0.30;0.20;;;;;;;;;;5000959;28;20041;-81
2022/10/13 01:33:41;;;;;;;0.20;0.10;;;;;;;;;;5000838;28;20068;-82
2022/10/13 01:36:17;;;;;;;0.20;0.10;;;;;;;;;;5015118;28;20045;-83
2022/10/13 01:38:46;;;;;;;0.20;0.10;;;;;;;;;;5009514;28;20134;-83
2022/10/13 01:41:31;;;;;;;0.20;0.10;;;;;;;;;;4996642;28;20038;-81
2022/10/13 01:44:14;;;;;;;0.20;0.10;;;;;;;;;;4997346;28;22083;-83
2022/10/13 01:46:42;;;;;;;0.47;0.40;;;;;;;;;;4999508;28;20129;-82
2022/10/13 01:49:12;;;;;;;0.20;0.20;;;;;;;;;;5008108;28;20033;-82
2022/10/13 01:51:39;;;;;;;0.20;0.10;;;;;;;;;;4997848;28;20340;-83
2022/10/13 01:54:05;;;;;;;0.20;0.10;;;;;;;;;;4984371;28;20053;-82
2022/10/13 01:56:31;;;;;;;0.20;0.10;;;;;;;;;;5002094;28;20041;-82
2022/10/13 01:58:59;;;;;;;0.20;0.10;;;;;;;;;;5013384;28;20100;-81
2022/10/13 02:01:25;;;;;;;0.75;0.35;;;;;;;;;;5011751;28;20108;-81
2022/10/13 02:04:05;;;;;;;0.20;0.10;;;;;;;;;;5002733;28;20764;-83
2022/10/13 02:06:33;;;;;;;0.20;0.10;;;;;;;;;;5001244;28;20043;-82
2022/10/13 02:09:11;;;;;;;0.20;0.10;;;;;;;;;;5000413;28;20752;-82
2022/10/13 02:11:38;;;;;;;0.20;0.10;;;;;;;;;;5017440;28;20056;-82
2022/10/13 02:14:12;;;;;;;0.20;0.10;;;;;;;;;;5011477;28;20056;-82
2022/10/13 02:16:40;;;;;;;0.20;0.10;;;;;;;;;;5006427;28;20034;-82
2022/10/13 02:19:07;;;;;;;0.22;0.22;;;;;;;;;;5007567;28;20230;-83
2022/10/13 02:21:34;;;;;;;0.30;0.15;;;;;;;;;;4997278;28;20071;-82
2022/10/13 02:24:00;;;;;;;0.20;0.20;;;;;;;;;;4994162;28;20042;-83
2022/10/13 02:26:27;;;;;;;0.20;0.10;;;;;;;;;;4997214;28;20061;-84
2022/10/13 02:28:53;;;;;;;0.20;0.10;;;;;;;;;;4999348;28;20076;-83
2022/10/13 02:31:19;;;;;;;0.20;0.10;;;;;;;;;;4973890;28;20038;-81
2022/10/13 02:33:45;;;;;;;0.35;0.20;;;;;;;;;;4995645;28;20130;-82
2022/10/13 02:36:11;;;;;;;0.20;0.17;;;;;;;;;;5013078;28;20033;-83
2022/10/13 02:38:37;;;;;;;0.20;0.10;;;;;;;;;;4979472;28;20045;-83
2022/10/13 02:41:03;;;;;;;0.20;0.10;;;;;;;;;;4989570;28;20041;-83
2022/10/13 02:43:29;;;;;;;0.20;0.10;;;;;;;;;;4991133;28;20133;-81
2022/10/13 02:45:55;;;;;;;0.20;0.10;;;;;;;;;;4982003;28;20042;-83
2022/10/13 02:48:22;;;;;;;0.43;0.25;;;;;;;;;;4990504;28;20037;-83
2022/10/13 02:50:48;;;;;;;0.20;0.10;;;;;;;;;;4989059;28;20041;-82
2022/10/13 02:53:14;;;;;;;0.20;0.10;;;;;;;;;;4980266;28;20056;-82
2022/10/13 02:55:40;;;;;;;0.20;0.10;;;;;;;;;;4996123;28;20042;-83
2022/10/13 02:58:06;;;;;;;0.20;0.10;;;;;;;;;;4997710;28;20053;-83
2022/10/13 03:00:32;;;;;;;0.20;0.17;;;;;;;;;;4998907;28;20414;-82
2022/10/13 03:02:58;;;;;;;0.20;0.10;;;;;;;;;;5010230;28;20052;-83
2022/10/13 03:05:24;;;;;;;0.20;0.10;;;;;;;;;;5008767;28;20029;-83
2022/10/13 03:07:50;;;;;;;0.20;0.15;;;;;;;;;;4994683;28;20037;-83
2022/10/13 03:10:16;;;;;;;0.20;0.10;;;;;;;;;;5012111;28;20053;-82
2022/10/13 03:12:42;;;;;;;0.20;0.20;;;;;;;;;;4985725;28;20495;-84
2022/10/13 03:15:09;;;;;;;0.20;0.10;;;;;;;;;;4997202;28;20548;-82
2022/10/13 03:17:35;;;;;;;0.20;0.10;;;;;;;;;;4999741;28;20496;-84
2022/10/13 03:20:01;;;;;;;0.20;0.10;;;;;;;;;;4995580;28;20045;-82
2022/10/13 03:22:27;;;;;;;0.30;0.20;;;;;;;;;;4989356;28;20049;-83
2022/10/13 03:24:53;;;;;;;0.20;0.10;;;;;;;;;;5000334;28;20033;-82
2022/10/13 03:27:19;;;;;;;0.20;0.10;;;;;;;;;;4999936;28;20037;-82
2022/10/13 03:29:45;;;;;;;0.20;0.10;;;;;;;;;;5002845;28;20041;-83
2022/10/13 03:32:11;;;;;;;0.32;0.13;;;;;;;;;;4998780;28;20094;-81
2022/10/13 03:34:37;;;;;;;0.20;0.15;;;;;;;;;;4986970;28;20030;-84
2022/10/13 03:37:03;;;;;;;3.03;0.20;;;;;;;;;;4997663;28;20045;-83
2022/10/13 03:39:29;;;;;;;0.20;0.10;;;;;;;;;;4986029;28;20044;-80
2022/10/13 03:41:56;;;;;;;0.20;0.10;;;;;;;;;;4980400;28;20076;-81
2022/10/13 03:44:22;;;;;;;0.20;0.10;;;;;;;;;;4990884;28;20044;-82
2022/10/13 03:46:48;;;;;;;0.20;0.10;;;;;;;;;;4987477;28;20049;-81
2022/10/13 03:49:15;;;;;;;0.38;0.30;;;;;;;;;;4991685;28;20069;-81
2022/10/13 03:51:41;;;;;;;0.77;0.77;;;;;;;;;;5006366;28;20049;-83
2022/10/13 03:54:10;;;;;;;0.20;0.10;;;;;;;;;;5000489;28;20104;-81
2022/10/13 03:56:36;;;;;;;0.20;0.10;;;;;;;;;;4995693;28;20073;-82
2022/10/13 03:59:03;;;;;;;0.20;0.10;;;;;;;;;;4977966;28;20444;-80
2022/10/13 04:01:30;;;;;;;0.20;0.10;;;;;;;;;;5013176;28;20052;-82
2022/10/13 04:03:57;;;;;;;0.20;0.10;;;;;;;;;;5007264;28;20036;-79
2022/10/13 04:06:23;;;;;;;0.20;0.10;;;;;;;;;;4993786;28;20053;-81
2022/10/13 04:08:50;;;;;;;0.30;0.20;;;;;;;;;;4992904;28;20037;-81
2022/10/13 04:11:16;;;;;;;0.25;0.13;;;;;;;;;;4993108;28;20041;-82
2022/10/13 04:13:42;;;;;;;0.50;0.30;;;;;;;;;;4978353;28;20388;-83
2022/10/13 04:16:12;;;;;;;0.20;0.20;;;;;;;;;;4993156;28;20050;-82
2022/10/13 04:22:19;;;;;;;0.20;0.10;;;;;;;;;;5056103;28;20044;-87
2022/10/13 04:24:55;;;;;;;0.20;0.20;;;;;;;;;;5055063;28;20032;-90
2022/10/13 04:27:27;;;;;;;0.20;0.10;;;;;;;;;;5061284;28;20051;-89
2022/10/13 04:30:21;;;;;;;0.40;0.35;;;;;;;;;;5058879;28;20036;-89
2022/10/13 04:32:56;;;;;;;0.20;0.10;;;;;;;;;;5045456;28;20041;-88
2022/10/13 04:35:31;;;;;;;0.20;0.20;;;;;;;;;;5029921;28;20155;-89
2022/10/13 04:37:57;;;;;;;0.20;0.10;;;;;;;;;;5058435;28;20136;-88
2022/10/13 04:40:24;;;;;;;0.20;0.10;;;;;;;;;;5038898;28;20203;-89
2022/10/13 04:42:50;;;;;;;0.20;0.10;;;;;;;;;;5051224;28;20049;-88
2022/10/13 04:45:16;;;;;;;0.20;0.10;;;;;;;;;;5036781;28;20248;-85
2022/10/13 04:47:42;;;;;;;0.20;0.10;;;;;;;;;;5041202;28;20708;-87
2022/10/13 04:50:09;;;;;;;0.20;0.10;;;;;;;;;;5032168;28;20049;-82
2022/10/13 04:52:35;;;;;;;0.20;0.20;;;;;;;;;;5030156;28;20486;-84
2022/10/13 04:55:02;;;;;;;0.22;0.20;;;;;;;;;;5038757;28;20041;-85
2022/10/13 04:57:28;;;;;;;0.20;0.10;;;;;;;;;;5046608;28;20044;-85
2022/10/13 04:59:54;;;;;;;0.20;0.20;;;;;;;;;;5033280;28;20032;-85
2022/10/13 05:02:20;;;;;;;0.20;0.10;;;;;;;;;;5044116;28;20553;-83
2022/10/13 05:04:46;;;;;;;0.30;0.20;;;;;;;;;;5044846;28;20094;-86
2022/10/13 05:07:12;;;;;;;0.28;0.20;;;;;;;;;;5044826;28;20045;-84
2022/10/13 05:09:38;;;;;;;0.20;0.17;;;;;;;;;;5013334;28;20869;-86
2022/10/13 05:12:05;;;;;;;0.20;0.10;;;;;;;;;;5032507;28;20045;-82
2022/10/13 05:14:32;;;;;;;0.20;0.10;;;;;;;;;;5025188;28;20049;-85
2022/10/13 05:16:58;;;;;;;0.20;0.10;;;;;;;;;;5024965;28;20080;-82
2022/10/13 05:19:24;;;;;;;0.28;0.28;;;;;;;;;;5030457;28;20050;-83
2022/10/13 05:21:50;;;;;;;0.20;0.10;;;;;;;;;;5033856;28;20064;-86
2022/10/13 05:24:16;;;;;;;0.20;0.20;;;;;;;;;;5031903;28;20099;-85
2022/10/13 05:26:42;;;;;;;0.20;0.10;;;;;;;;;;5031444;28;20036;-85
2022/10/13 05:29:08;;;;;;;0.20;0.10;;;;;;;;;;5031051;28;20532;-84
2022/10/13 05:31:35;;;;;;;0.20;0.10;;;;;;;;;;5045660;28;20113;-84
2022/10/13 05:34:02;;;;;;;0.20;0.10;;;;;;;;;;5045633;28;20040;-83
2022/10/13 05:36:34;;;;;;;0.20;0.10;;;;;;;;;;5032604;28;20040;-83
2022/10/13 05:39:01;;;;;;;0.28;0.20;;;;;;;;;;5047971;28;20048;-85
2022/10/13 05:41:28;;;;;;;1.50;0.50;;;;;;;;;;5047710;28;20044;-85
2022/10/13 05:43:56;;;;;;;0.20;0.10;;;;;;;;;;5045314;28;20596;-84
2022/10/13 05:46:22;;;;;;;1.15;0.30;;;;;;;;;;5045228;28;20082;-82
2022/10/13 05:48:48;;;;;;;0.20;0.10;;;;;;;;;;5039358;28;20058;-84
2022/10/13 05:51:25;;;;;;;0.20;0.10;;;;;;;;;;5040597;28;21527;-87
2022/10/13 05:53:58;;;;;;;0.20;0.10;;;;;;;;;;5030388;28;20049;-85
2022/10/13 05:56:26;;;;;;;0.20;0.10;;;;;;;;;;5048256;28;20056;-85
2022/10/13 05:58:55;;;;;;;0.40;0.20;;;;;;;;;;5040520;28;20040;-86
2022/10/13 06:01:23;;;;;;;0.20;0.10;;;;;;;;;;5043741;28;20144;-83
2022/10/13 06:03:50;;;;;;;0.20;0.10;;;;;;;;;;5047758;28;20123;-81
2022/10/13 06:06:34;;;;;;;0.20;0.20;;;;;;;;;;5046165;28;20605;-82
2022/10/13 06:09:03;;;;;;;0.32;0.32;;;;;;;;;;5043278;28;20090;-83
2022/10/13 06:11:29;;;;;;;0.20;0.20;;;;;;;;;;5027655;28;20052;-85
2022/10/13 06:13:55;;;;;;;0.20;0.10;;;;;;;;;;5034951;28;20045;-82
2022/10/13 06:16:24;;;;;;;0.20;0.10;;;;;;;;;;5037234;28;20155;-86
2022/10/13 06:18:50;;;;;;;0.20;0.10;;;;;;;;;;5049548;28;20444;-83
2022/10/13 06:21:20;;;;;;;0.20;0.10;;;;;;;;;;5035441;28;20047;-85
2022/10/13 06:23:46;;;;;;;0.20;0.10;;;;;;;;;;5016229;28;20060;-86
2022/10/13 06:26:15;;;;;;;0.20;0.10;;;;;;;;;;5035085;28;20055;-85
2022/10/13 06:28:51;;;;;;;0.20;0.10;;;;;;;;;;5059932;28;20156;-84
2022/10/13 06:31:23;;;;;;;0.20;0.10;;;;;;;;;;5019754;28;20513;-83
2022/10/13 06:33:49;;;;;;;0.20;0.10;;;;;;;;;;5050999;28;20446;-85
2022/10/13 06:36:15;;;;;;;0.20;0.10;;;;;;;;;;5021641;28;20086;-84
2022/10/13 06:38:41;;;;;;;0.68;0.65;;;;;;;;;;5032688;28;20041;-83
2022/10/13 06:41:07;;;;;;;0.20;0.10;;;;;;;;;;5033487;28;20154;-83
2022/10/13 06:43:33;;;;;;;0.20;0.10;;;;;;;;;;5019792;28;20037;-84
2022/10/13 06:46:00;;;;;;;0.20;0.10;;;;;;;;;;5047605;28;20059;-85
2022/10/13 06:48:27;;;;;;;0.20;0.10;;;;;;;;;;5036947;28;20136;-88
2022/10/13 06:51:00;;;;;;;0.20;0.10;;;;;;;;;;5037099;28;20816;-88
2022/10/13 06:53:26;;;;;;;0.20;0.10;;;;;;;;;;5049322;28;20051;-83
2022/10/13 06:55:55;;;;;;;0.20;0.20;;;;;;;;;;5054079;28;20037;-85
2022/10/13 06:58:21;;;;;;;0.20;0.10;;;;;;;;;;5047633;28;20102;-85
2022/10/13 07:00:47;;;;;;;0.20;0.10;;;;;;;;;;5050770;28;20159;-83
2022/10/13 07:03:13;;;;;;;0.20;0.10;;;;;;;;;;5031549;28;20036;-84
2022/10/13 07:05:39;;;;;;;0.20;0.10;;;;;;;;;;5044977;28;20749;-87
2022/10/13 07:08:05;;;;;;;0.20;0.10;;;;;;;;;;5014133;28;20390;-85
2022/10/13 07:10:37;;;;;;;0.20;0.10;;;;;;;;;;5041440;28;20050;-87
2022/10/13 07:13:15;;;;;;;0.20;0.10;;;;;;;;;;5034049;28;20055;-87
2022/10/13 07:15:41;;;;;;;0.20;0.20;;;;;;;;;;5024031;28;20140;-86
2022/10/13 07:18:07;;;;;;;0.20;0.10;;;;;;;;;;5024000;28;20036;-87
2022/10/13 07:20:33;;;;;;;0.20;0.10;;;;;;;;;;5032221;28;20032;-86
2022/10/13 07:22:59;;;;;;;0.30;0.10;;;;;;;;;;5048135;28;20067;-84
2022/10/13 07:25:25;;;;;;;0.93;0.25;;;;;;;;;;5029712;28;20107;-82
2022/10/13 07:27:52;;;;;;;0.20;0.10;;;;;;;;;;5047060;28;20037;-89
2022/10/13 07:30:18;;;;;;;0.22;0.22;;;;;;;;;;5034337;28;20064;-85
2022/10/13 07:32:44;;;;;;;0.20;0.20;;;;;;;;;;5022055;28;20052;-85
2022/10/13 07:35:13;;;;;;;1.88;0.95;;;;;;;;;;5034686;28;20120;-85
2022/10/13 07:37:39;;;;;;;0.20;0.10;;;;;;;;;;5049147;28;20124;-85
2022/10/13 07:40:05;;;;;;;1.17;0.65;;;;;;;;;;5030566;28;20049;-84
2022/10/13 07:42:31;;;;;;;0.65;0.52;;;;;;;;;;5030987;28;20048;-84
2022/10/13 07:44:58;;;;;;;0.20;0.10;;;;;;;;;;5011564;28;20083;-83
2022/10/13 07:47:24;;;;;;;0.20;0.10;;;;;;;;;;5045612;28;20059;-86
2022/10/13 07:49:50;;;;;;;0.20;0.10;;;;;;;;;;5042973;28;20033;-83
2022/10/13 07:52:17;;;;;;;0.20;0.10;;;;;;;;;;5034225;28;20603;-86
2022/10/13 07:54:43;;;;;;;0.20;0.10;;;;;;;;;;5029697;28;20048;-84
2022/10/13 07:57:09;;;;;;;0.35;0.20;;;;;;;;;;5033962;28;20036;-84
2022/10/13 07:59:35;;;;;;;0.20;0.10;;;;;;;;;;5034142;28;20044;-83
2022/10/13 08:02:01;;;;;;;0.20;0.20;;;;;;;;;;5046541;28;20128;-84
2022/10/13 08:04:30;;;;;;;0.20;0.10;;;;;;;;;;5041176;28;20044;-83
2022/10/13 08:06:57;;;;;;;0.73;0.73;;;;;;;;;;5026047;28;20403;-85
2022/10/13 08:09:24;;;;;;;0.20;0.10;;;;;;;;;;5040702;28;20036;-82
2022/10/13 08:11:50;;;;;;;0.20;0.10;;;;;;;;;;5056902;28;20036;-87
2022/10/13 08:14:16;;;;;;;0.38;0.17;;;;;;;;;;5044015;28;20055;-86
2022/10/13 08:16:44;;;;;;;0.20;0.10;;;;;;;;;;5037732;28;20040;-86
2022/10/13 08:19:14;;;;;;;0.22;0.20;;;;;;;;;;5048815;28;20600;-86
2022/10/13 08:21:40;;;;;;;0.25;0.13;;;;;;;;;;5036937;28;20054;-85
2022/10/13 08:24:10;;;;;;;0.20;0.10;;;;;;;;;;5025831;28;20119;-87
2022/10/13 08:26:36;;;;;;;0.20;0.10;;;;;;;;;;5064488;28;20326;-85
2022/10/13 08:29:05;;;;;;;0.20;0.10;;;;;;;;;;5035119;28;20036;-88
2022/10/13 08:31:31;;;;;;;0.25;0.25;;;;;;;;;;5060772;28;20041;-86
2022/10/13 08:34:03;;;;;;;0.20;0.20;;;;;;;;;;5024713;28;20090;-85
2022/10/13 08:36:41;;;;;;;0.20;0.10;;;;;;;;;;5046836;28;20451;-88
2022/10/13 08:39:10;;;;;;;0.20;0.10;;;;;;;;;;5020687;28;20045;-87
2022/10/13 08:41:45;;;;;;;0.20;0.13;;;;;;;;;;5055422;28;20029;-88
2022/10/13 08:44:31;;;;;;;0.30;0.20;;;;;;;;;;5040141;28;20043;-86
2022/10/13 08:50:00;;;;;;;0.20;0.10;;;;;;;;;;5057896;22;20044;-88
2022/10/13 08:52:27;;;;;;;0.20;0.20;;;;;;;;;;5020272;28;20044;-87
2022/10/13 08:54:57;;;;;;;0.20;0.10;;;;;;;;;;5020870;28;20447;-86
2022/10/13 08:59:57;;;;;;;0.20;0.10;;;;;;;;;;5041713;22;20057;-88
2022/10/13 09:02:30;;;;;;;0.20;0.10;;;;;;;;;;5031011;28;20139;-90
2022/10/13 09:04:58;;;;;;;0.20;0.10;;;;;;;;;;5030066;28;20091;-88
2022/10/13 09:07:46;;;;;;;0.20;0.10;;;;;;;;;;5016700;28;20148;-90
2022/10/13 09:12:57;;;;;;;0.20;0.10;;;;;;;;;;5011820;28;20041;-82
2022/10/13 09:15:23;;;;;;;0.20;0.10;;;;;;;;;;4992474;28;20038;-83
2022/10/13 09:18:08;;;;;;;0.20;0.10;;;;;;;;;;4997162;28;20038;-83
2022/10/13 09:20:34;;;;;;;0.25;0.25;;;;;;;;;;4996158;28;21384;-83
2022/10/13 09:23:02;;;;;;;0.20;0.10;;;;;;;;;;4982038;28;20437;-82
2022/10/13 09:25:29;;;;;;;0.20;0.10;;;;;;;;;;4996424;28;20040;-82
2022/10/13 09:27:56;;;;;;;0.22;0.15;;;;;;;;;;4999546;28;20038;-82
2022/10/13 09:30:24;;;;;;;1.00;0.30;;;;;;;;;;5001132;28;20530;-83
2022/10/13 09:33:06;;;;;;;0.20;0.10;;;;;;;;;;4998859;28;20046;-83
2022/10/13 09:35:33;;;;;;;0.20;0.10;;;;;;;;;;4984384;28;20311;-82
2022/10/13 09:38:16;;;;;;;0.20;0.10;;;;;;;;;;4984452;28;20558;-83
2022/10/13 09:40:43;;;;;;;0.20;0.10;;;;;;;;;;4999248;28;20435;-83
2022/10/13 09:43:23;;;;;;;0.20;0.10;;;;;;;;;;4983475;28;20068;-82
2022/10/13 09:45:49;;;;;;;0.32;0.30;;;;;;;;;;5013739;28;20695;-82
2022/10/13 09:48:18;;;;;;;0.20;0.10;;;;;;;;;;5001604;28;20075;-82
2022/10/13 09:50:49;;;;;;;0.35;0.35;;;;;;;;;;4985094;28;20041;-83
2022/10/13 09:53:21;;;;;;;0.20;0.17;;;;;;;;;;5000914;28;20100;-83
2022/10/13 09:55:48;;;;;;;0.20;0.10;;;;;;;;;;4999725;28;20050;-83
2022/10/13 09:58:29;;;;;;;0.20;0.20;;;;;;;;;;4977908;28;20128;-83
2022/10/13 10:00:57;;;;;;;0.65;0.28;;;;;;;;;;4997163;28;20037;-83
2022/10/13 10:03:35;;;;;;;0.20;0.10;;;;;;;;;;4971661;28;20496;-83
2022/10/13 10:06:06;;;;;;;0.20;0.10;;;;;;;;;;4991863;28;20128;-83
2022/10/13 10:08:45;;;;;;;0.20;0.13;;;;;;;;;;4988281;28;20042;-84
2022/10/13 10:11:18;;;;;;;0.20;0.10;;;;;;;;;;4991954;28;20061;-85
2022/10/13 10:13:45;;;;;;;0.20;0.10;;;;;;;;;;4976434;28;20045;-83
2022/10/13 10:16:13;;;;;;;0.20;0.20;;;;;;;;;;4976563;28;20046;-83
2022/10/13 10:18:39;;;;;;;0.20;0.20;;;;;;;;;;4996794;28;20140;-83
2022/10/13 10:21:09;;;;;;;0.20;0.15;;;;;;;;;;4974557;28;20084;-83
2022/10/13 10:23:45;;;;;;;0.20;0.10;;;;;;;;;;4994459;28;20049;-83
2022/10/13 10:26:17;;;;;;;0.47;0.32;;;;;;;;;;4998574;28;20506;-82
2022/10/13 10:28:50;;;;;;;0.20;0.10;;;;;;;;;;4983495;28;20035;-82
2022/10/13 10:31:34;;;;;;;0.20;0.10;;;;;;;;;;4998052;28;21196;-84
2022/10/13 10:34:10;;;;;;;0.20;0.10;;;;;;;;;;4984859;28;20521;-84
2022/10/13 10:36:39;;;;;;;0.20;0.15;;;;;;;;;;4995238;28;20045;-81
2022/10/13 10:39:35;;;;;;;0.20;0.10;;;;;;;;;;4983827;28;21717;-84
2022/10/13 10:42:20;;;;;;;0.20;0.10;;;;;;;;;;4969579;28;20050;-83
2022/10/13 10:44:48;;;;;;;0.20;0.20;;;;;;;;;;5002524;28;20045;-84
2022/10/13 10:47:26;;;;;;;0.32;0.25;;;;;;;;;;5000681;28;20048;-84
2022/10/13 10:50:03;;;;;;;0.35;0.35;;;;;;;;;;4973705;28;20711;-86
2022/10/13 10:52:55;;;;;;;0.20;0.10;;;;;;;;;;4976192;28;20069;-84
2022/10/13 10:55:49;;;;;;;0.20;0.10;;;;;;;;;;5000165;28;20511;-83
2022/10/13 10:58:21;;;;;;;0.20;0.10;;;;;;;;;;4986743;28;20034;-86
2022/10/13 11:00:50;;;;;;;0.20;0.10;;;;;;;;;;5001416;28;20104;-84
2022/10/13 11:03:25;;;;;;;0.20;0.10;;;;;;;;;;5003374;28;20042;-84
2022/10/13 11:06:03;;;;;;;0.20;0.10;;;;;;;;;;5003169;28;20501;-84
2022/10/13 11:08:39;;;;;;;0.20;0.10;;;;;;;;;;5002543;28;20038;-84
2022/10/13 11:11:25;;;;;;;0.20;0.10;;;;;;;;;;5006325;28;20120;-84
2022/10/13 11:13:55;;;;;;;0.20;0.10;;;;;;;;;;4981113;28;20037;-85
2022/10/13 11:16:40;;;;;;;0.20;0.10;;;;;;;;;;4982441;28;20046;-84
2022/10/13 11:19:25;;;;;;;0.20;0.10;;;;;;;;;;4966590;28;20045;-83
2022/10/13 11:21:55;;;;;;;0.20;0.10;;;;;;;;;;4979799;28;20050;-83
2022/10/13 11:24:44;;;;;;;0.20;0.10;;;;;;;;;;4972732;28;20041;-83
2022/10/13 11:27:24;;;;;;;0.20;0.20;;;;;;;;;;4996339;28;20042;-83
2022/10/13 11:29:53;;;;;;;0.20;0.10;;;;;;;;;;4988483;28;20038;-84
2022/10/13 11:32:26;;;;;;;0.20;0.10;;;;;;;;;;4976485;28;20042;-82
2022/10/13 11:34:51;;;;;;;;;;;;;;;;;;4978220;28;20053;-84
2022/10/13 11:37:18;;;;;;;0.20;0.10;;;;;;;;;;4989970;28;19956;-84
2022/10/13 11:39:48;;;;;;;0.20;0.10;;;;;;;;;;4949852;28;20070;-83
2022/10/13 11:42:24;;;;;;;0.95;0.32;;;;;;;;;;4994120;28;20037;-83
2022/10/13 11:44:57;;;;;;;0.20;0.10;;;;;;;;;;4994259;28;20046;-83
2022/10/13 11:47:42;;;;;;;0.20;0.10;;;;;;;;;;4996724;28;20539;-83
2022/10/13 11:50:31;;;;;;;0.20;0.10;;;;;;;;;;4981252;28;20803;-84
2022/10/13 11:53:06;;;;;;;0.20;0.10;;;;;;;;;;4974652;28;20495;-83
2022/10/13 11:56:00;;;;;;;0.20;0.10;;;;;;;;;;4980727;28;21257;-84
2022/10/13 11:59:03;;;;;;;0.20;0.10;;;;;;;;;;4996991;28;20491;-83
2022/10/13 12:01:46;;;;;;;0.20;0.10;;;;;;;;;;4972691;28;20065;-85
2022/10/13 12:04:34;;;;;;;0.30;0.30;;;;;;;;;;4973097;28;20123;-84
2022/10/13 12:07:18;;;;;;;0.20;0.10;;;;;;;;;;4980300;28;20046;-84
2022/10/13 12:16:37;;;;;;;0.20;0.10;;;;;;;;;;4984666;28;20053;-83
2022/10/13 12:19:27;;;;;;;0.20;0.10;;;;;;;;;;4999498;28;20044;-84
2022/10/13 12:25:36;;;;;;;0.20;0.10;;;;;;;;;;4992504;28;20049;-84
2022/10/13 12:28:18;;;;;;;0.20;0.10;;;;;;;;;;4978651;28;20038;-85
2022/10/13 12:36:57;;;;;;;0.20;0.10;;;;;;;;;;5040438;28;20540;-84
2022/10/13 12:43:38;;;;;;;;;;;;;;;;;;;;;
2022/10/13 12:46:08;;;;;;;2.25;0.50;;;;;;;;;;4986054;22;20403;-87
2022/10/13 12:48:37;;;;;;;0.20;0.10;;;;;;;;;;5049786;28;20188;-87
2022/10/13 12:51:08;;;;;;;0.20;0.10;;;;;;;;;;5068514;28;20232;-87
2022/10/13 12:53:34;;;;;;;0.47;0.20;;;;;;;;;;5066401;28;20036;-88
2022/10/13 12:56:02;;;;;;;0.20;0.10;;;;;;;;;;5046248;28;20040;-87
2022/10/13 12:58:33;;;;;;;0.20;0.10;;;;;;;;;;5031449;28;20195;-85
2022/10/13 13:01:10;;;;;;;0.22;0.20;;;;;;;;;;5035897;28;20037;-85
2022/10/13 13:03:37;;;;;;;0.57;0.57;;;;;;;;;;5038843;28;20412;-87
2022/10/13 13:06:12;;;;;;;0.43;0.43;;;;;;;;;;5048434;28;20094;-86
2022/10/13 13:08:40;;;;;;;0.20;0.10;;;;;;;;;;5034948;28;21606;-83
2022/10/13 13:11:07;;;;;;;0.20;0.10;;;;;;;;;;5050372;28;20456;-84
2022/10/13 13:13:34;;;;;;;0.20;0.10;;;;;;;;;;5047633;28;20380;-84
2022/10/13 13:16:13;;;;;;;0.20;0.10;;;;;;;;;;5039524;28;20111;-87
2022/10/13 13:18:41;;;;;;;0.20;0.15;;;;;;;;;;5049014;28;20037;-85
2022/10/13 13:21:17;;;;;;;0.20;0.10;;;;;;;;;;5050465;28;20053;-86
2022/10/13 13:23:49;;;;;;;0.20;0.10;;;;;;;;;;5052033;28;21123;-87
2022/10/13 13:26:16;;;;;;;0.20;0.10;;;;;;;;;;5050187;28;20134;-88
2022/10/13 13:28:48;;;;;;;0.20;0.10;;;;;;;;;;5040498;28;20389;-87
2022/10/13 13:31:16;;;;;;;0.20;0.10;;;;;;;;;;5054082;28;20128;-89
2022/10/13 13:33:45;;;;;;;0.20;0.10;;;;;;;;;;5054687;28;20075;-89
2022/10/13 13:36:20;;;;;;;0.20;0.10;;;;;;;;;;5041187;28;20128;-89
2022/10/13 13:38:46;;;;;;;0.20;0.10;;;;;;;;;;5038213;28;20502;-89
2022/10/13 13:41:12;;;;;;;0.20;0.10;;;;;;;;;;5039203;28;20040;-89
2022/10/13 13:43:38;;;;;;;0.20;0.20;;;;;;;;;;5020381;28;20079;-88
2022/10/13 13:46:05;;;;;;;0.25;0.15;;;;;;;;;;5027211;28;20036;-88
2022/10/13 13:48:31;;;;;;;0.20;0.10;;;;;;;;;;5042539;28;20075;-90
2022/10/13 13:50:57;;;;;;;0.20;0.10;;;;;;;;;;5051971;28;20434;-88
2022/10/13 13:53:26;;;;;;;0.20;0.10;;;;;;;;;;5018094;28;20052;-87
2022/10/13 13:55:53;;;;;;;0.20;0.10;;;;;;;;;;5020587;28;20041;-87
2022/10/13 13:58:19;;;;;;;0.20;0.10;;;;;;;;;;5043371;28;20131;-87
2022/10/13 14:00:45;;;;;;;0.20;0.10;;;;;;;;;;5054832;28;20498;-86
2022/10/13 14:03:11;;;;;;;0.20;0.10;;;;;;;;;;5035511;28;20494;-87
2022/10/13 14:05:40;;;;;;;0.20;0.10;;;;;;;;;;5047283;28;20025;-85
2022/10/13 14:08:07;;;;;;;0.20;0.10;;;;;;;;;;5049882;28;20516;-86
2022/10/13 14:10:33;;;;;;;0.20;0.10;;;;;;;;;;5021070;28;20037;-86
2022/10/13 14:12:59;;;;;;;0.20;0.10;;;;;;;;;;5034344;28;21391;-87
2022/10/13 14:15:28;;;;;;;0.20;0.10;;;;;;;;;;5020753;28;20052;-87
2022/10/13 14:17:54;;;;;;;0.73;0.63;;;;;;;;;;5037075;28;20051;-86
2022/10/13 14:20:21;;;;;;;0.20;0.10;;;;;;;;;;5020021;28;20048;-84
2022/10/13 14:22:50;;;;;;;0.20;0.10;;;;;;;;;;5021179;28;20101;-86
2022/10/13 14:25:16;;;;;;;0.20;0.03;;;;;;;;;;5041389;28;20044;-86
2022/10/13 14:27:44;;;;;;;0.20;0.10;;;;;;;;;;5039328;28;20037;-84
2022/10/13 14:30:11;;;;;;;0.20;0.10;;;;;;;;;;5038480;28;20047;-86
2022/10/13 14:32:37;;;;;;;0.20;0.10;;;;;;;;;;5053940;28;20093;-86
2022/10/13 14:35:03;;;;;;;0.20;0.10;;;;;;;;;;5053807;28;20056;-84
2022/10/13 14:37:31;;;;;;;0.20;0.10;;;;;;;;;;5030380;28;20597;-85
2022/10/13 14:39:57;;;;;;;0.20;0.20;;;;;;;;;;5030988;28;21460;-86
2022/10/13 14:42:23;;;;;;;0.20;0.10;;;;;;;;;;5014659;28;20185;-86
2022/10/13 14:44:49;;;;;;;1.10;0.30;;;;;;;;;;5031845;28;20048;-88
2022/10/13 14:47:15;;;;;;;0.20;0.10;;;;;;;;;;5007118;28;21578;-88
2022/10/13 14:49:41;;;;;;;0.20;0.10;;;;;;;;;;5032847;28;20045;-87
2022/10/13 14:52:08;;;;;;;0.20;0.20;;;;;;;;;;5042098;28;20040;-87
2022/10/13 14:54:34;;;;;;;0.20;0.10;;;;;;;;;;5026388;28;20044;-87
2022/10/13 14:57:04;;;;;;;0.20;0.10;;;;;;;;;;5029410;28;20048;-90
2022/10/13 14:59:30;;;;;;;0.20;0.10;;;;;;;;;;5038644;28;20068;-88
2022/10/13 15:01:56;;;;;;;1.10;0.38;;;;;;;;;;5021124;28;20051;-89
2022/10/13 15:04:22;;;;;;;0.20;0.10;;;;;;;;;;5042757;28;20519;-90
2022/10/13 15:06:48;;;;;;;0.20;0.10;;;;;;;;;;5025552;28;20041;-89
2022/10/13 15:09:15;;;;;;;0.20;0.10;;;;;;;;;;5025509;28;20033;-89
2022/10/13 15:11:41;;;;;;;0.20;0.10;;;;;;;;;;5026864;28;20037;-90
2022/10/13 15:14:08;;;;;;;0.20;0.10;;;;;;;;;;5057694;28;20054;-90
2022/10/13 15:16:36;;;;;;;0.20;0.10;;;;;;;;;;5016800;28;20080;-92
2022/10/13 15:19:03;;;;;;;0.20;0.10;;;;;;;;;;5014786;28;20075;-90
2022/10/13 15:21:29;;;;;;;0.20;0.10;;;;;;;;;;5028146;28;20036;-90
2022/10/13 15:23:56;;;;;;;0.20;0.10;;;;;;;;;;5028716;28;20168;-91
2022/10/13 15:26:22;;;;;;;0.20;0.10;;;;;;;;;;5039154;28;20064;-90
2022/10/13 15:28:53;;;;;;;0.20;0.10;;;;;;;;;;5039507;28;20045;-89
2022/10/13 15:31:21;;;;;;;0.20;0.10;;;;;;;;;;5043754;28;20131;-90